createdAt,value
2024-03-03T00:01:32.544Z,100.00
2024-03-03T00:04:01.213Z,100.00
2024-03-03T00:06:31.344Z,100.00
2024-03-03T00:08:59.954Z,100.00
2024-03-03T00:11:29.173Z,100.00
2024-03-03T00:13:57.815Z,100.00
2024-03-03T00:16:26.453Z,100.00
2024-03-03T00:18:55.099Z,100.00
2024-03-03T00:21:23.842Z,100.00
2024-03-03T00:23:53.802Z,100.00
2024-03-03T00:26:22.297Z,100.00
2024-03-03T00:28:50.982Z,100.00
2024-03-03T00:31:20.335Z,100.00
2024-03-03T00:33:49.003Z,100.00
2024-03-03T00:36:17.777Z,100.00
2024-03-03T00:38:46.294Z,100.00
2024-03-03T00:41:16.292Z,100.00
2024-03-03T00:43:45.256Z,100.00
2024-03-03T00:46:14.007Z,100.00
2024-03-03T00:48:42.798Z,100.00
2024-03-03T00:51:11.516Z,100.00
2024-03-03T00:53:40.113Z,100.00
2024-03-03T00:56:09.156Z,100.00
2024-03-03T00:58:39.308Z,100.00
2024-03-03T01:01:07.865Z,100.00
2024-03-03T01:03:36.536Z,100.00
2024-03-03T01:06:05.255Z,100.00
2024-03-03T01:08:33.759Z,100.00
2024-03-03T01:11:02.541Z,100.00
2024-03-03T01:13:31.177Z,100.00
2024-03-03T01:16:01.143Z,100.00
2024-03-03T01:18:30.933Z,100.00
2024-03-03T01:20:59.644Z,100.00
2024-03-03T01:23:28.182Z,100.00
2024-03-03T01:25:56.725Z,100.00
2024-03-03T01:28:25.318Z,100.00
2024-03-03T01:30:53.953Z,100.00
2024-03-03T01:33:23.949Z,100.00
2024-03-03T01:35:52.428Z,100.00
2024-03-03T01:38:20.934Z,100.00
2024-03-03T01:40:52.974Z,100.00
2024-03-03T01:43:21.566Z,100.00
2024-03-03T01:45:50.241Z,100.00
2024-03-03T01:48:18.979Z,100.00
2024-03-03T01:50:50.300Z,100.00
2024-03-03T01:53:20.636Z,100.00
2024-03-03T01:55:50.737Z,100.00
2024-03-03T01:58:20.414Z,100.00
2024-03-03T02:00:50.333Z,100.00
2024-03-03T02:03:20.729Z,100.00
2024-03-03T02:05:50.991Z,100.00
2024-03-03T02:08:20.169Z,100.00
2024-03-03T02:10:49.274Z,100.00
2024-03-03T02:13:18.157Z,100.00
2024-03-03T02:15:46.952Z,100.00
2024-03-03T02:18:15.499Z,100.00
2024-03-03T02:20:44.333Z,100.00
2024-03-03T02:23:14.408Z,100.00
2024-03-03T02:25:43.467Z,100.00
2024-03-03T02:28:13.048Z,100.00
2024-03-03T02:30:41.602Z,100.00
2024-03-03T02:33:10.271Z,100.00
2024-03-03T02:35:38.815Z,100.00
2024-03-03T02:38:08.107Z,100.00
2024-03-03T02:40:38.051Z,100.00
2024-03-03T02:43:10.439Z,100.00
2024-03-03T02:45:39.236Z,100.00
2024-03-03T02:48:08.536Z,100.00
2024-03-03T02:50:37.569Z,100.00
2024-03-03T02:53:06.673Z,100.00
2024-03-03T02:55:35.254Z,100.00
2024-03-03T02:58:05.386Z,100.00
2024-03-03T03:00:34.678Z,100.00
2024-03-03T03:03:03.768Z,100.00
2024-03-03T03:05:32.579Z,100.00
2024-03-03T03:08:01.232Z,100.00
2024-03-03T03:10:30.034Z,100.00
2024-03-03T03:12:58.694Z,100.00
2024-03-03T03:15:29.534Z,100.00
2024-03-03T03:17:58.296Z,100.00
2024-03-03T03:20:26.837Z,100.00
2024-03-03T03:22:55.385Z,100.00
2024-03-03T03:25:24.021Z,100.00
2024-03-03T03:27:52.559Z,100.00
2024-03-03T03:30:21.245Z,100.00
2024-03-03T03:32:51.468Z,100.00
2024-03-03T03:35:20.383Z,100.00
2024-03-03T03:37:48.940Z,100.00
2024-03-03T03:40:17.628Z,100.00
2024-03-03T03:42:46.292Z,100.00
2024-03-03T03:45:14.950Z,100.00
2024-03-03T03:47:43.633Z,100.00
2024-03-03T03:50:13.718Z,100.00
2024-03-03T03:52:42.322Z,100.00
2024-03-03T03:55:11.559Z,100.00
2024-03-03T03:57:40.433Z,100.00
2024-03-03T04:00:11.352Z,100.00
2024-03-03T04:02:39.930Z,100.00
2024-03-03T04:05:09.048Z,100.00
2024-03-03T04:07:39.166Z,100.00
2024-03-03T04:10:08.848Z,100.00
2024-03-03T04:12:37.443Z,100.00
2024-03-03T04:15:06.856Z,100.00
2024-03-03T04:17:35.445Z,100.00
2024-03-03T04:20:05.764Z,100.00
2024-03-03T04:22:34.365Z,100.00
2024-03-03T04:25:05.130Z,100.00
2024-03-03T04:27:33.929Z,100.00
2024-03-03T04:30:04.492Z,100.00
2024-03-03T04:32:33.457Z,100.00
2024-03-03T04:35:04.263Z,100.00
2024-03-03T04:37:32.908Z,100.00
2024-03-03T04:40:00.567Z,100.00
2024-03-03T04:42:30.639Z,100.00
2024-03-03T04:44:59.296Z,100.00
2024-03-03T04:47:28.368Z,100.00
2024-03-03T04:49:56.926Z,100.00
2024-03-03T04:52:25.489Z,100.00
2024-03-03T04:54:54.207Z,100.00
2024-03-03T04:57:22.925Z,100.00
2024-03-03T04:59:52.931Z,100.00
2024-03-03T05:02:21.682Z,100.00
2024-03-03T05:04:50.204Z,100.00
2024-03-03T05:07:18.883Z,100.00
2024-03-03T05:09:48.298Z,100.00
2024-03-03T05:12:16.927Z,100.00
2024-03-03T05:14:45.576Z,100.00
2024-03-03T05:17:15.753Z,100.00
2024-03-03T05:19:44.961Z,100.00
2024-03-03T05:22:13.762Z,100.00
2024-03-03T05:24:42.559Z,100.00
2024-03-03T05:27:11.090Z,100.00
2024-03-03T05:29:40.350Z,100.00
2024-03-03T05:32:09.025Z,100.00
2024-03-03T05:34:39.032Z,100.00
2024-03-03T05:37:07.581Z,100.00
2024-03-03T05:39:36.267Z,100.00
2024-03-03T05:42:05.303Z,100.00
2024-03-03T05:44:36.263Z,100.00
2024-03-03T05:47:06.792Z,100.00
2024-03-03T05:49:37.230Z,100.00
2024-03-03T05:52:07.464Z,100.00
2024-03-03T05:54:38.655Z,100.00
2024-03-03T05:57:08.120Z,100.00
2024-03-03T05:59:36.791Z,100.00
2024-03-03T06:02:05.914Z,100.00
2024-03-03T06:04:36.911Z,100.00
2024-03-03T06:07:07.431Z,100.00
2024-03-03T06:09:36.671Z,100.00
2024-03-03T06:12:07.011Z,100.00
2024-03-03T06:14:36.040Z,100.00
2024-03-03T06:17:04.841Z,100.00
2024-03-03T06:19:33.385Z,100.00
2024-03-03T06:22:02.771Z,100.00
2024-03-03T06:24:36.077Z,100.00
2024-03-03T06:27:04.782Z,100.00
2024-03-03T06:29:36.383Z,100.00
2024-03-03T06:32:05.148Z,100.00
2024-03-03T06:34:33.786Z,100.00
2024-03-03T06:37:02.642Z,100.00
2024-03-03T06:39:32.786Z,100.00
2024-03-03T06:42:01.499Z,100.00
2024-03-03T06:44:32.470Z,100.00
2024-03-03T06:47:02.885Z,100.00
2024-03-03T06:49:31.648Z,100.00
2024-03-03T06:52:00.164Z,96.42
2024-03-03T06:54:28.899Z,95.30
2024-03-03T06:56:59.083Z,97.69
2024-03-03T06:59:28.646Z,98.66
2024-03-03T07:01:57.499Z,99.10
2024-03-03T07:04:26.805Z,99.44
2024-03-03T07:06:56.010Z,98.48
2024-03-03T07:09:25.056Z,97.55
2024-03-03T07:11:54.437Z,96.67
2024-03-03T07:14:27.457Z,98.99
2024-03-03T07:16:56.433Z,98.43
2024-03-03T07:19:25.456Z,98.77
2024-03-03T07:21:54.144Z,99.36
2024-03-03T07:24:22.753Z,95.59
2024-03-03T07:26:51.287Z,92.59
2024-03-03T07:29:20.106Z,93.78
2024-03-03T07:31:50.125Z,94.15
2024-03-03T07:34:18.692Z,91.52
2024-03-03T07:36:48.679Z,89.89
2024-03-03T07:39:17.190Z,90.20
2024-03-03T07:41:45.763Z,87.99
2024-03-03T07:44:14.375Z,87.42
2024-03-03T07:46:42.961Z,86.49
2024-03-03T07:49:12.982Z,87.48
2024-03-03T07:51:42.096Z,82.23
2024-03-03T07:54:10.622Z,83.31
2024-03-03T07:56:39.075Z,80.82
2024-03-03T07:59:07.721Z,86.20
2024-03-03T08:01:37.020Z,83.31
2024-03-03T08:04:07.923Z,76.65
2024-03-03T08:06:38.164Z,73.74
2024-03-03T08:09:07.252Z,70.75
2024-03-03T08:11:35.926Z,66.81
2024-03-03T08:14:05.831Z,67.51
2024-03-03T08:16:35.489Z,62.55
2024-03-03T08:19:04.694Z,61.13
2024-03-03T08:21:37.794Z,59.53
2024-03-03T08:24:08.062Z,59.54
2024-03-03T08:26:37.575Z,59.68
2024-03-03T08:29:06.966Z,56.98
2024-03-03T08:31:37.011Z,56.33
2024-03-03T08:34:05.733Z,56.21
2024-03-03T08:36:34.297Z,56.70
2024-03-03T08:39:02.816Z,55.16
2024-03-03T08:41:34.224Z,55.34
2024-03-03T08:44:02.727Z,54.91
2024-03-03T08:46:32.293Z,54.01
2024-03-03T08:49:00.996Z,51.68
2024-03-03T08:51:29.657Z,52.54
2024-03-03T08:53:58.248Z,54.16
2024-03-03T08:56:26.799Z,52.36
2024-03-03T08:59:15.089Z,54.72
2024-03-03T09:01:43.871Z,51.02
2024-03-03T09:04:14.073Z,51.79
2024-03-03T09:06:43.002Z,51.39
2024-03-03T09:09:11.946Z,48.96
2024-03-03T09:11:40.620Z,48.77
2024-03-03T09:14:10.685Z,48.65
2024-03-03T09:16:39.790Z,47.08
2024-03-03T09:19:08.425Z,48.60
2024-03-03T09:21:37.908Z,46.20
2024-03-03T09:24:08.332Z,47.52
2024-03-03T09:26:37.962Z,47.42
2024-03-03T09:29:06.596Z,45.55
2024-03-03T09:31:36.572Z,46.99
2024-03-03T09:34:05.231Z,44.65
2024-03-03T09:36:36.131Z,45.11
2024-03-03T09:39:06.379Z,45.42
2024-03-03T09:41:35.436Z,44.37
2024-03-03T09:44:12.319Z,43.81
2024-03-03T09:46:44.707Z,44.10
2024-03-03T09:49:19.728Z,43.04
2024-03-03T09:51:49.828Z,41.20
2024-03-03T09:54:20.620Z,41.15
2024-03-03T09:56:52.934Z,42.10
2024-03-03T09:59:21.779Z,40.90
2024-03-03T10:01:56.295Z,39.88
2024-03-03T10:04:25.517Z,37.95
2024-03-03T10:06:56.271Z,38.17
2024-03-03T10:09:27.746Z,38.79
2024-03-03T10:11:59.885Z,41.25
2024-03-03T10:14:29.629Z,42.54
2024-03-03T10:17:00.714Z,39.91
2024-03-03T10:19:31.191Z,40.18
2024-03-03T10:22:02.349Z,41.21
2024-03-03T10:24:31.085Z,42.07
2024-03-03T10:27:01.936Z,43.11
2024-03-03T10:29:33.105Z,44.89
2024-03-03T10:32:11.125Z,45.46
2024-03-03T10:34:38.673Z,46.45
2024-03-03T10:37:07.996Z,46.13
2024-03-03T10:39:38.711Z,46.44
2024-03-03T10:42:10.196Z,45.70
2024-03-03T10:44:38.832Z,44.67
2024-03-03T10:47:10.795Z,46.69
2024-03-03T10:49:41.504Z,47.24
2024-03-03T10:52:11.427Z,46.60
2024-03-03T10:54:40.705Z,47.65
2024-03-03T10:57:10.773Z,46.75
2024-03-03T10:59:41.499Z,46.59
2024-03-03T11:02:15.290Z,48.13
2024-03-03T11:04:44.823Z,46.03
2024-03-03T11:07:13.818Z,47.73
2024-03-03T11:09:44.608Z,46.68
2024-03-03T11:12:18.583Z,46.40
2024-03-03T11:14:48.589Z,46.58
2024-03-03T11:17:22.263Z,45.20
2024-03-03T11:19:52.078Z,43.87
2024-03-03T11:22:24.904Z,44.25
2024-03-03T11:25:00.554Z,44.27
2024-03-03T11:27:30.598Z,45.81
2024-03-03T11:29:59.755Z,47.70
2024-03-03T11:32:31.784Z,50.08
2024-03-03T11:35:01.164Z,49.36
2024-03-03T11:37:30.396Z,48.82
2024-03-03T11:40:01.829Z,49.77
2024-03-03T11:42:39.477Z,49.96
2024-03-03T11:45:10.532Z,49.52
2024-03-03T11:47:47.363Z,49.47
2024-03-03T11:50:20.874Z,49.49
2024-03-03T11:52:50.466Z,49.85
2024-03-03T11:55:24.188Z,50.74
2024-03-03T11:57:53.235Z,48.55
2024-03-03T12:00:25.857Z,47.31
2024-03-03T12:02:59.701Z,43.78
2024-03-03T12:05:29.399Z,40.81
2024-03-03T12:07:58.812Z,41.47
2024-03-03T12:10:28.400Z,42.13
2024-03-03T12:12:58.477Z,39.10
2024-03-03T12:15:28.738Z,39.94
2024-03-03T12:18:00.073Z,40.07
2024-03-03T12:20:30.171Z,38.83
2024-03-03T12:22:59.479Z,39.22
2024-03-03T12:25:28.444Z,38.38
2024-03-03T12:27:58.906Z,39.36
2024-03-03T12:30:36.674Z,38.77
2024-03-03T12:33:09.020Z,40.15
2024-03-03T12:35:38.783Z,41.96
2024-03-03T12:38:09.256Z,41.63
2024-03-03T12:40:38.350Z,42.26
2024-03-03T12:43:07.344Z,41.07
2024-03-03T12:45:36.459Z,43.76
2024-03-03T12:48:10.281Z,44.06
2024-03-03T12:50:38.858Z,43.53
2024-03-03T12:53:15.767Z,44.73
2024-03-03T12:55:52.065Z,45.00
2024-03-03T12:58:21.227Z,45.29
2024-03-03T13:00:51.118Z,46.88
2024-03-03T13:03:21.212Z,47.45
2024-03-03T13:05:50.384Z,47.86
2024-03-03T13:08:18.993Z,49.17
2024-03-03T13:10:48.429Z,49.74
2024-03-03T13:13:18.763Z,54.41
2024-03-03T13:15:53.524Z,53.16
2024-03-03T13:18:24.127Z,51.65
2024-03-03T13:20:52.700Z,47.49
2024-03-03T13:23:22.308Z,53.10
2024-03-03T13:25:53.762Z,49.65
2024-03-03T13:28:22.443Z,50.18
2024-03-03T13:31:01.165Z,46.61
2024-03-03T13:33:33.597Z,44.76
2024-03-03T13:36:03.007Z,47.63
2024-03-03T13:38:31.843Z,47.22
2024-03-03T13:41:00.471Z,45.98
2024-03-03T13:43:29.382Z,43.47
2024-03-03T13:45:58.364Z,43.63
2024-03-03T13:48:27.158Z,44.51
2024-03-03T13:50:58.930Z,44.45
2024-03-03T13:53:28.646Z,44.57
2024-03-03T13:55:57.375Z,43.80
2024-03-03T13:58:26.182Z,44.82
2024-03-03T14:00:54.824Z,45.48
2024-03-03T14:03:23.308Z,42.76
2024-03-03T14:05:52.359Z,43.63
2024-03-03T14:08:22.465Z,41.86
2024-03-03T14:10:51.261Z,40.68
2024-03-03T14:13:20.086Z,41.13
2024-03-03T14:15:48.720Z,43.03
2024-03-03T14:18:17.405Z,43.54
2024-03-03T14:20:46.552Z,45.89
2024-03-03T14:23:15.763Z,45.29
2024-03-03T14:25:45.928Z,45.46
2024-03-03T14:28:14.616Z,48.04
2024-03-03T14:30:43.270Z,48.85
2024-03-03T14:33:11.926Z,49.98
2024-03-03T14:35:40.625Z,49.31
2024-03-03T14:38:10.940Z,49.28
2024-03-03T14:40:40.703Z,46.54
2024-03-03T14:43:10.933Z,46.60
2024-03-03T14:45:39.569Z,46.03
2024-03-03T14:48:08.536Z,45.25
2024-03-03T14:50:37.135Z,44.84
2024-03-03T14:53:05.946Z,46.09
2024-03-03T14:55:36.306Z,48.34
2024-03-03T14:58:06.317Z,47.69
2024-03-03T15:00:36.297Z,47.01
2024-03-03T15:03:06.269Z,46.31
2024-03-03T15:05:34.789Z,43.07
2024-03-03T15:08:03.454Z,42.58
2024-03-03T15:10:35.554Z,42.61
2024-03-03T15:13:07.031Z,42.34
2024-03-03T15:15:38.423Z,43.93
2024-03-03T15:18:07.471Z,44.30
2024-03-03T15:20:38.372Z,45.79
2024-03-03T15:23:07.370Z,46.96
2024-03-03T15:25:36.178Z,46.66
2024-03-03T15:28:05.345Z,44.65
2024-03-03T15:30:33.983Z,44.35
2024-03-03T15:33:05.122Z,44.18
2024-03-03T15:35:33.811Z,45.50
2024-03-03T15:38:03.697Z,47.56
2024-03-03T15:40:32.470Z,48.39
2024-03-03T15:43:01.057Z,49.96
2024-03-03T15:45:29.614Z,51.23
2024-03-03T15:47:58.377Z,51.39
2024-03-03T15:50:28.392Z,51.27
2024-03-03T15:52:56.966Z,51.74
2024-03-03T15:55:25.564Z,54.01
2024-03-03T15:57:54.274Z,55.66
2024-03-03T16:00:23.444Z,55.96
2024-03-03T16:02:52.032Z,54.83
2024-03-03T16:05:22.814Z,55.93
2024-03-03T16:07:53.159Z,55.72
2024-03-03T16:10:21.693Z,56.75
2024-03-03T16:12:50.490Z,56.08
2024-03-03T16:15:19.068Z,57.33
2024-03-03T16:17:48.172Z,56.81
2024-03-03T16:20:18.349Z,59.31
2024-03-03T16:22:46.920Z,61.84
2024-03-03T16:25:17.603Z,64.21
2024-03-03T16:27:46.322Z,64.35
2024-03-03T16:30:15.141Z,66.33
2024-03-03T16:32:43.737Z,66.94
2024-03-03T16:35:12.467Z,66.51
2024-03-03T16:37:41.677Z,67.29
2024-03-03T16:40:11.707Z,66.71
2024-03-03T16:42:55.914Z,67.04
2024-03-03T16:45:25.760Z,68.20
2024-03-03T16:47:57.710Z,68.90
2024-03-03T16:50:26.452Z,68.87
2024-03-03T16:52:55.813Z,70.19
2024-03-03T16:55:25.944Z,69.73
2024-03-03T16:57:58.269Z,69.83
2024-03-03T17:00:27.181Z,70.54
2024-03-03T17:02:56.089Z,70.65
2024-03-03T17:05:25.603Z,71.06
2024-03-03T17:07:56.307Z,72.47
2024-03-03T17:10:24.884Z,74.42
2024-03-03T17:12:53.596Z,74.22
2024-03-03T17:15:24.453Z,78.06
2024-03-03T17:17:53.552Z,79.14
2024-03-03T17:20:22.118Z,80.31
2024-03-03T17:22:50.726Z,81.94
2024-03-03T17:25:19.501Z,81.61
2024-03-03T17:27:49.095Z,81.76
2024-03-03T17:30:20.248Z,81.37
2024-03-03T17:32:52.098Z,82.77
2024-03-03T17:35:20.723Z,82.64
2024-03-03T17:37:49.277Z,80.86
2024-03-03T17:40:17.964Z,80.93
2024-03-03T17:42:46.605Z,81.59
2024-03-03T17:45:16.399Z,81.57
2024-03-03T17:47:45.193Z,81.38
2024-03-03T17:50:15.677Z,82.52
2024-03-03T17:52:44.124Z,80.15
2024-03-03T17:55:12.941Z,81.65
2024-03-03T17:57:43.227Z,80.81
2024-03-03T18:00:14.258Z,81.08
2024-03-03T18:02:42.929Z,79.69
2024-03-03T18:05:11.810Z,78.14
2024-03-03T18:07:42.175Z,78.58
2024-03-03T18:10:12.242Z,77.35
2024-03-03T18:12:40.910Z,77.92
2024-03-03T18:15:11.056Z,78.81
2024-03-03T18:17:42.082Z,82.02
2024-03-03T18:20:11.695Z,80.84
2024-03-03T18:22:41.674Z,80.50
2024-03-03T18:25:11.259Z,80.38
2024-03-03T18:27:39.875Z,78.92
2024-03-03T18:30:09.985Z,85.69
2024-03-03T18:32:38.701Z,85.46
2024-03-03T18:35:10.378Z,85.60
2024-03-03T18:37:39.355Z,85.00
2024-03-03T18:40:11.461Z,85.80
2024-03-03T18:42:40.008Z,88.65
2024-03-03T18:45:09.218Z,86.50
2024-03-03T18:47:38.658Z,88.42
2024-03-03T18:50:08.496Z,86.62
2024-03-03T18:52:37.268Z,86.17
2024-03-03T18:55:06.511Z,86.49
2024-03-03T18:57:36.765Z,85.58
2024-03-03T19:00:08.653Z,90.75
2024-03-03T19:02:37.350Z,92.08
2024-03-03T19:05:07.940Z,91.40
2024-03-03T19:07:36.807Z,90.04
2024-03-03T19:10:06.132Z,88.29
2024-03-03T19:12:36.165Z,88.64
2024-03-03T19:15:05.278Z,88.55
2024-03-03T19:17:33.982Z,88.46
2024-03-03T19:20:02.545Z,90.12
2024-03-03T19:22:31.102Z,89.93
2024-03-03T19:24:59.857Z,89.81
2024-03-03T19:27:28.514Z,89.80
2024-03-03T19:29:59.297Z,88.41
2024-03-03T19:32:27.950Z,87.50
2024-03-03T19:34:56.658Z,91.41
2024-03-03T19:37:25.203Z,94.31
2024-03-03T19:39:55.602Z,94.13
2024-03-03T19:42:24.132Z,95.79
2024-03-03T19:44:52.683Z,99.76
2024-03-03T19:47:22.672Z,100.00
2024-03-03T19:49:51.254Z,97.84
2024-03-03T19:52:19.846Z,96.22
2024-03-03T19:54:48.481Z,95.19
2024-03-03T19:57:17.128Z,95.53
2024-03-03T19:59:46.056Z,94.87
2024-03-03T20:02:15.007Z,93.16
2024-03-03T20:04:45.100Z,94.88
2024-03-03T20:07:13.792Z,94.19
2024-03-03T20:09:44.669Z,95.94
2024-03-03T20:12:13.196Z,95.51
2024-03-03T20:14:43.389Z,94.14
2024-03-03T20:17:16.826Z,92.55
2024-03-03T20:19:47.653Z,92.55
2024-03-03T20:22:16.389Z,92.63
2024-03-03T20:24:45.047Z,93.59
2024-03-03T20:27:13.929Z,95.92
2024-03-03T20:29:42.923Z,97.38
2024-03-03T20:32:11.404Z,95.06
2024-03-03T20:34:40.011Z,95.97
2024-03-03T20:37:10.592Z,99.75
2024-03-03T20:39:39.197Z,97.60
2024-03-03T20:42:08.148Z,96.69
2024-03-03T20:44:36.701Z,97.65
2024-03-03T20:47:05.977Z,97.88
2024-03-03T20:49:34.552Z,97.92
2024-03-03T20:52:03.079Z,96.72
2024-03-03T20:54:33.109Z,96.67
2024-03-03T20:57:02.644Z,95.71
2024-03-03T20:59:31.179Z,95.52
2024-03-03T21:01:59.819Z,94.32
2024-03-03T21:04:28.549Z,93.11
2024-03-03T21:06:57.196Z,95.09
2024-03-03T21:09:25.814Z,97.27
2024-03-03T21:11:55.840Z,96.60
2024-03-03T21:14:24.469Z,96.40
2024-03-03T21:16:52.946Z,95.73
2024-03-03T21:19:21.682Z,94.69
2024-03-03T21:21:50.280Z,93.82
2024-03-03T21:24:18.976Z,96.59
2024-03-03T21:26:47.592Z,95.51
2024-03-03T21:29:17.623Z,95.00
2024-03-03T21:31:46.213Z,95.09
2024-03-03T21:34:14.865Z,94.69
2024-03-03T21:36:43.497Z,96.45
2024-03-03T21:39:12.079Z,96.33
2024-03-03T21:41:41.369Z,96.18
2024-03-03T21:44:09.831Z,96.01
2024-03-03T21:46:40.101Z,95.92
2024-03-03T21:49:08.722Z,96.63
2024-03-03T21:51:38.195Z,96.66
2024-03-03T21:54:06.840Z,98.16
2024-03-03T21:56:35.477Z,100.00
2024-03-03T21:59:04.087Z,100.00
2024-03-03T22:01:32.777Z,100.00
2024-03-03T22:04:03.437Z,100.00
2024-03-03T22:06:32.006Z,100.00
2024-03-03T22:09:00.829Z,100.00
2024-03-03T22:11:29.328Z,100.00
2024-03-03T22:13:59.086Z,100.00
2024-03-03T22:16:27.669Z,100.00
2024-03-03T22:18:56.186Z,100.00
2024-03-03T22:21:27.735Z,100.00
2024-03-03T22:23:56.204Z,100.00
2024-03-03T22:26:24.981Z,100.00
2024-03-03T22:28:53.766Z,99.98
2024-03-03T22:31:22.415Z,98.34
2024-03-03T22:33:50.999Z,98.63
2024-03-03T22:36:19.664Z,98.77
2024-03-03T22:38:49.646Z,98.05
2024-03-03T22:41:18.291Z,96.60
2024-03-03T22:43:46.928Z,96.27
2024-03-03T22:46:17.656Z,96.16
2024-03-03T22:48:46.345Z,100.00
2024-03-03T22:51:15.046Z,100.00
2024-03-03T22:53:43.581Z,99.23
2024-03-03T22:56:13.637Z,97.92
2024-03-03T22:58:42.234Z,97.30
2024-03-03T23:01:10.855Z,96.24
2024-03-03T23:03:40.363Z,95.45
2024-03-03T23:06:10.903Z,95.64
2024-03-03T23:08:40.923Z,96.72
2024-03-03T23:11:09.575Z,97.57
2024-03-03T23:13:39.594Z,98.35
2024-03-03T23:16:09.263Z,98.00
2024-03-03T23:18:37.884Z,98.14
2024-03-03T23:21:07.032Z,100.00
2024-03-03T23:23:35.632Z,100.00
2024-03-03T23:26:04.119Z,100.00
2024-03-03T23:28:32.751Z,100.00
2024-03-03T23:31:03.820Z,100.00
2024-03-03T23:33:32.962Z,100.00
2024-03-03T23:36:01.723Z,100.00
2024-03-03T23:38:30.322Z,99.55
2024-03-03T23:40:58.831Z,100.00
2024-03-03T23:43:27.304Z,100.00
2024-03-03T23:45:55.993Z,99.06
2024-03-03T23:48:26.012Z,100.00
2024-03-03T23:50:54.543Z,100.00
2024-03-03T23:53:23.193Z,100.00
2024-03-03T23:55:53.035Z,100.00
2024-03-03T23:58:21.770Z,99.88
